TimeEDT,TemperatureF,Dew PointF,Humidity,Sea Level PressureIn,VisibilityMPH,Wind Direction,Wind SpeedMPH,Gust SpeedMPH,PrecipitationIn,Events,Conditions,WindDirDegrees,DateUTC
12:51 AM,60.1,55.9,86,30.00,7.0,SSW,3.5,-,N/A,,Mostly Cloudy,210,2013-10-01 04:51:00
1:51 AM,61.0,57.0,87,30.00,9.0,South,3.5,-,N/A,,Overcast,190,2013-10-01 05:51:00
2:51 AM,61.0,55.9,83,30.00,10.0,SSW,6.9,-,N/A,,Scattered Clouds,200,2013-10-01 06:51:00
3:51 AM,61.0,57.0,87,29.99,10.0,SSW,6.9,-,N/A,,Scattered Clouds,200,2013-10-01 07:51:00
4:51 AM,60.1,55.9,86,30.00,10.0,SSW,6.9,-,N/A,,Scattered Clouds,210,2013-10-01 08:51:00
5:51 AM,59.0,55.9,90,30.02,8.0,SSW,4.6,-,N/A,,Partly Cloudy,200,2013-10-01 09:51:00
6:51 AM,59.0,55.9,90,30.03,7.0,South,5.8,-,N/A,,Partly Cloudy,180,2013-10-01 10:51:00
7:12 AM,59.0,55.4,88,30.04,6.0,South,4.6,-,N/A,,Mostly Cloudy,180,2013-10-01 11:12:00
7:51 AM,59.0,55.9,90,30.04,4.0,South,4.6,-,N/A,,Overcast,180,2013-10-01 11:51:00
8:03 AM,60.8,57.2,88,30.05,5.0,South,4.6,-,N/A,,Overcast,190,2013-10-01 12:03:00
8:51 AM,62.1,57.9,86,30.05,5.0,SSW,4.6,-,N/A,,Overcast,210,2013-10-01 12:51:00
9:51 AM,63.0,59.0,87,30.06,4.0,SSW,9.2,-,N/A,,Overcast,200,2013-10-01 13:51:00
10:51 AM,64.9,60.1,84,30.06,5.0,South,5.8,-,N/A,,Haze,190,2013-10-01 14:51:00
11:14 AM,66.2,60.8,83,30.06,6.0,South,8.1,-,N/A,,Haze,190,2013-10-01 15:14:00
11:46 AM,68.0,60.8,78,30.05,7.0,SSW,8.1,-,N/A,,Overcast,200,2013-10-01 15:46:00
11:51 AM,68.0,60.1,76,30.05,8.0,SW,8.1,-,N/A,,Overcast,230,2013-10-01 15:51:00
12:51 PM,69.1,60.1,73,30.03,9.0,West,4.6,-,N/A,,Scattered Clouds,270,2013-10-01 16:51:00
1:51 PM,71.1,61.0,70,30.02,8.0,West,6.9,-,N/A,,Clear,280,2013-10-01 17:51:00
2:51 PM,73.0,59.0,61,30.00,10.0,WNW,9.2,-,N/A,,Clear,300,2013-10-01 18:51:00
3:51 PM,73.9,59.0,59,29.99,10.0,West,6.9,-,N/A,,Clear,270,2013-10-01 19:51:00
4:51 PM,71.1,59.0,66,29.98,10.0,WSW,6.9,-,N/A,,Clear,250,2013-10-01 20:51:00
5:51 PM,72.0,57.0,59,29.98,10.0,West,5.8,-,N/A,,Clear,260,2013-10-01 21:51:00
6:51 PM,68.0,57.9,70,29.98,10.0,Calm,Calm,-,N/A,,Clear,0,2013-10-01 22:51:00
7:51 PM,64.0,57.9,80,29.98,10.0,South,3.5,-,N/A,,Clear,190,2013-10-01 23:51:00
8:51 PM,64.0,59.0,84,29.98,10.0,South,4.6,-,N/A,,Clear,180,2013-10-02 00:51:00
9:51 PM,64.0,57.0,78,29.98,10.0,SSW,5.8,-,N/A,,Clear,200,2013-10-02 01:51:00
10:51 PM,66.0,57.0,73,29.98,10.0,SSW,6.9,-,N/A,,Clear,200,2013-10-02 02:51:00
11:51 PM,64.9,57.0,75,29.98,10.0,SSW,8.1,-,N/A,,Clear,210,2013-10-02 03:51:00